sensor_id;sensor_type;location;lat;lon;timestamp;temperature;humidity
5870;DHT22;2961;47.702;9.410;2023-06-22T00:00:11;22.30;99.90
5870;DHT22;2961;47.702;9.410;2023-06-22T00:02:38;22.20;99.90
5870;DHT22;2961;47.702;9.410;2023-06-22T00:05:05;22.20;99.90
5870;DHT22;2961;47.702;9.410;2023-06-22T00:07:32;22.20;99.90
5870;DHT22;2961;47.702;9.410;2023-06-22T00:09:59;22.20;99.90
5870;DHT22;2961;47.702;9.410;2023-06-22T00:12:27;22.20;99.90
5870;DHT22;2961;47.702;9.410;2023-06-22T00:14:53;22.20;99.90
5870;DHT22;2961;47.702;9.410;2023-06-22T00:17:20;22.20;99.90
5870;DHT22;2961;47.702;9.410;2023-06-22T00:19:47;22.20;99.90
5870;DHT22;2961;47.702;9.410;2023-06-22T00:22:18;22.10;99.90
5870;DHT22;2961;47.702;9.410;2023-06-22T00:24:47;22.10;99.90
5870;DHT22;2961;47.702;9.410;2023-06-22T00:27:13;22.10;99.90
5870;DHT22;2961;47.702;9.410;2023-06-22T00:29:41;22.00;99.90
5870;DHT22;2961;47.702;9.410;2023-06-22T00:32:08;21.90;99.90
5870;DHT22;2961;47.702;9.410;2023-06-22T00:34:35;21.90;99.90
5870;DHT22;2961;47.702;9.410;2023-06-22T00:37:02;21.80;99.90
5870;DHT22;2961;47.702;9.410;2023-06-22T00:39:29;21.80;99.90
5870;DHT22;2961;47.702;9.410;2023-06-22T00:41:56;21.80;99.90
5870;DHT22;2961;47.702;9.410;2023-06-22T00:44:23;21.80;99.90
5870;DHT22;2961;47.702;9.410;2023-06-22T00:46:51;21.80;99.90
5870;DHT22;2961;47.702;9.410;2023-06-22T00:49:18;21.80;99.90
5870;DHT22;2961;47.702;9.410;2023-06-22T00:51:45;21.80;99.90
5870;DHT22;2961;47.702;9.410;2023-06-22T00:54:13;21.80;99.90
5870;DHT22;2961;47.702;9.410;2023-06-22T00:56:40;21.80;99.90
5870;DHT22;2961;47.702;9.410;2023-06-22T00:59:08;21.70;99.90
5870;DHT22;2961;47.702;9.410;2023-06-22T01:01:37;21.70;99.90
5870;DHT22;2961;47.702;9.410;2023-06-22T01:04:08;21.60;99.90
5870;DHT22;2961;47.702;9.410;2023-06-22T01:06:40;21.60;99.90
5870;DHT22;2961;47.702;9.410;2023-06-22T01:09:15;21.50;99.90
5870;DHT22;2961;47.702;9.410;2023-06-22T01:11:51;21.50;99.90
5870;DHT22;2961;47.702;9.410;2023-06-22T01:14:23;21.30;99.90
5870;DHT22;2961;47.702;9.410;2023-06-22T01:16:51;21.20;99.90
5870;DHT22;2961;47.702;9.410;2023-06-22T01:19:35;21.10;99.90
5870;DHT22;2961;47.702;9.410;2023-06-22T01:22:03;20.90;99.90
5870;DHT22;2961;47.702;9.410;2023-06-22T01:24:33;20.80;99.90
5870;DHT22;2961;47.702;9.410;2023-06-22T01:27:15;20.60;99.90
5870;DHT22;2961;47.702;9.410;2023-06-22T01:29:50;20.50;99.90
5870;DHT22;2961;47.702;9.410;2023-06-22T01:32:18;20.40;99.90
5870;DHT22;2961;47.702;9.410;2023-06-22T01:34:45;20.30;99.90
5870;DHT22;2961;47.702;9.410;2023-06-22T01:37:14;20.20;99.90
5870;DHT22;2961;47.702;9.410;2023-06-22T01:39:41;20.00;99.90
5870;DHT22;2961;47.702;9.410;2023-06-22T01:42:09;20.00;99.90
5870;DHT22;2961;47.702;9.410;2023-06-22T01:44:37;19.90;99.90
5870;DHT22;2961;47.702;9.410;2023-06-22T01:47:06;19.80;99.90
5870;DHT22;2961;47.702;9.410;2023-06-22T01:49:33;19.70;99.90
5870;DHT22;2961;47.702;9.410;2023-06-22T01:52:00;19.60;99.90
5870;DHT22;2961;47.702;9.410;2023-06-22T01:54:27;19.60;99.90
5870;DHT22;2961;47.702;9.410;2023-06-22T01:56:54;19.50;99.90
5870;DHT22;2961;47.702;9.410;2023-06-22T01:59:25;19.40;99.90
5870;DHT22;2961;47.702;9.410;2023-06-22T02:01:59;19.40;99.90
5870;DHT22;2961;47.702;9.410;2023-06-22T02:04:34;19.40;99.90
5870;DHT22;2961;47.702;9.410;2023-06-22T02:07:02;19.40;99.90
5870;DHT22;2961;47.702;9.410;2023-06-22T02:09:33;19.20;99.90
5870;DHT22;2961;47.702;9.410;2023-06-22T02:12:02;19.10;99.90
5870;DHT22;2961;47.702;9.410;2023-06-22T02:14:30;19.10;99.90
5870;DHT22;2961;47.702;9.410;2023-06-22T02:16:57;19.00;99.90
5870;DHT22;2961;47.702;9.410;2023-06-22T02:19:25;18.90;99.90
5870;DHT22;2961;47.702;9.410;2023-06-22T02:21:54;18.70;99.90
5870;DHT22;2961;47.702;9.410;2023-06-22T02:24:21;18.70;99.90
5870;DHT22;2961;47.702;9.410;2023-06-22T02:26:49;18.60;99.90
5870;DHT22;2961;47.702;9.410;2023-06-22T02:29:16;18.50;99.90
5870;DHT22;2961;47.702;9.410;2023-06-22T02:31:43;18.50;99.90
5870;DHT22;2961;47.702;9.410;2023-06-22T02:34:09;18.60;99.90
5870;DHT22;2961;47.702;9.410;2023-06-22T02:36:36;18.50;99.90
5870;DHT22;2961;47.702;9.410;2023-06-22T02:39:04;18.50;99.90
5870;DHT22;2961;47.702;9.410;2023-06-22T02:41:31;18.50;99.90
5870;DHT22;2961;47.702;9.410;2023-06-22T02:43:58;18.30;99.90
5870;DHT22;2961;47.702;9.410;2023-06-22T02:46:25;18.30;99.90
5870;DHT22;2961;47.702;9.410;2023-06-22T02:48:51;18.30;99.90
5870;DHT22;2961;47.702;9.410;2023-06-22T02:51:18;18.20;99.90
5870;DHT22;2961;47.702;9.410;2023-06-22T02:53:46;18.10;99.90
5870;DHT22;2961;47.702;9.410;2023-06-22T02:56:14;18.10;99.90
5870;DHT22;2961;47.702;9.410;2023-06-22T02:58:41;18.10;99.90
5870;DHT22;2961;47.702;9.410;2023-06-22T03:01:08;18.20;99.90
5870;DHT22;2961;47.702;9.410;2023-06-22T03:03:35;18.20;99.90
5870;DHT22;2961;47.702;9.410;2023-06-22T03:06:02;18.30;99.90
5870;DHT22;2961;47.702;9.410;2023-06-22T03:08:29;18.20;99.90
5870;DHT22;2961;47.702;9.410;2023-06-22T03:10:55;18.10;99.90
5870;DHT22;2961;47.702;9.410;2023-06-22T03:13:24;18.20;99.90
5870;DHT22;2961;47.702;9.410;2023-06-22T03:15:50;18.10;99.90
5870;DHT22;2961;47.702;9.410;2023-06-22T03:18:18;18.20;99.90
5870;DHT22;2961;47.702;9.410;2023-06-22T03:20:44;18.30;99.90
5870;DHT22;2961;47.702;9.410;2023-06-22T03:23:11;18.30;99.90
5870;DHT22;2961;47.702;9.410;2023-06-22T03:25:38;18.30;99.90
5870;DHT22;2961;47.702;9.410;2023-06-22T03:28:05;18.20;99.90
5870;DHT22;2961;47.702;9.410;2023-06-22T03:30:33;18.00;99.90
5870;DHT22;2961;47.702;9.410;2023-06-22T03:33:00;18.00;99.90
5870;DHT22;2961;47.702;9.410;2023-06-22T03:35:26;17.90;99.90
5870;DHT22;2961;47.702;9.410;2023-06-22T03:37:53;17.90;99.90
5870;DHT22;2961;47.702;9.410;2023-06-22T03:40:20;18.00;99.90
5870;DHT22;2961;47.702;9.410;2023-06-22T03:42:47;18.00;99.90
5870;DHT22;2961;47.702;9.410;2023-06-22T03:45:14;18.10;99.90
5870;DHT22;2961;47.702;9.410;2023-06-22T03:47:42;18.20;99.90
5870;DHT22;2961;47.702;9.410;2023-06-22T03:50:09;18.20;99.90
5870;DHT22;2961;47.702;9.410;2023-06-22T03:52:36;18.20;99.90
5870;DHT22;2961;47.702;9.410;2023-06-22T03:55:03;18.40;99.90
5870;DHT22;2961;47.702;9.410;2023-06-22T03:57:30;18.50;99.90
5870;DHT22;2961;47.702;9.410;2023-06-22T03:59:57;18.60;99.90
5870;DHT22;2961;47.702;9.410;2023-06-22T04:02:24;18.80;99.90
5870;DHT22;2961;47.702;9.410;2023-06-22T04:04:52;18.90;99.90
5870;DHT22;2961;47.702;9.410;2023-06-22T04:07:19;19.00;99.90
5870;DHT22;2961;47.702;9.410;2023-06-22T04:09:46;19.00;99.90
5870;DHT22;2961;47.702;9.410;2023-06-22T04:12:13;19.10;99.90
5870;DHT22;2961;47.702;9.410;2023-06-22T04:14:40;19.20;99.90
5870;DHT22;2961;47.702;9.410;2023-06-22T04:17:06;19.40;99.90
5870;DHT22;2961;47.702;9.410;2023-06-22T04:19:33;19.70;99.90
5870;DHT22;2961;47.702;9.410;2023-06-22T04:22:01;20.00;99.90
5870;DHT22;2961;47.702;9.410;2023-06-22T04:24:28;20.10;99.90
5870;DHT22;2961;47.702;9.410;2023-06-22T04:26:55;20.10;99.90
5870;DHT22;2961;47.702;9.410;2023-06-22T04:29:22;20.30;99.90
5870;DHT22;2961;47.702;9.410;2023-06-22T04:31:55;20.50;99.90
5870;DHT22;2961;47.702;9.410;2023-06-22T04:34:23;20.60;99.90
5870;DHT22;2961;47.702;9.410;2023-06-22T04:36:52;20.80;99.90
5870;DHT22;2961;47.702;9.410;2023-06-22T04:39:20;21.20;99.90
5870;DHT22;2961;47.702;9.410;2023-06-22T04:41:47;21.70;99.90
5870;DHT22;2961;47.702;9.410;2023-06-22T04:44:15;21.90;99.90
5870;DHT22;2961;47.702;9.410;2023-06-22T04:46:49;22.10;99.90
5870;DHT22;2961;47.702;9.410;2023-06-22T04:49:20;22.50;99.90
5870;DHT22;2961;47.702;9.410;2023-06-22T04:51:48;23.00;99.90
5870;DHT22;2961;47.702;9.410;2023-06-22T04:54:17;23.30;99.90
5870;DHT22;2961;47.702;9.410;2023-06-22T04:56:45;23.50;99.90
5870;DHT22;2961;47.702;9.410;2023-06-22T04:59:12;23.70;99.90
5870;DHT22;2961;47.702;9.410;2023-06-22T05:01:39;24.00;99.90
5870;DHT22;2961;47.702;9.410;2023-06-22T05:04:06;24.10;99.90
5870;DHT22;2961;47.702;9.410;2023-06-22T05:06:33;24.50;99.90
5870;DHT22;2961;47.702;9.410;2023-06-22T05:09:00;24.80;99.90
5870;DHT22;2961;47.702;9.410;2023-06-22T05:11:28;25.10;99.90
5870;DHT22;2961;47.702;9.410;2023-06-22T05:13:56;25.40;99.90
5870;DHT22;2961;47.702;9.410;2023-06-22T05:16:24;25.80;99.90
5870;DHT22;2961;47.702;9.410;2023-06-22T05:18:52;26.30;99.90
5870;DHT22;2961;47.702;9.410;2023-06-22T05:21:21;26.50;99.90
5870;DHT22;2961;47.702;9.410;2023-06-22T05:23:48;27.00;99.90
5870;DHT22;2961;47.702;9.410;2023-06-22T05:26:15;27.10;99.90
5870;DHT22;2961;47.702;9.410;2023-06-22T05:28:42;27.50;99.90
5870;DHT22;2961;47.702;9.410;2023-06-22T05:31:12;27.80;99.90
5870;DHT22;2961;47.702;9.410;2023-06-22T05:33:40;27.90;99.90
5870;DHT22;2961;47.702;9.410;2023-06-22T05:36:07;28.20;99.90
5870;DHT22;2961;47.702;9.410;2023-06-22T05:38:35;28.70;99.90
5870;DHT22;2961;47.702;9.410;2023-06-22T05:41:02;28.90;99.50
5870;DHT22;2961;47.702;9.410;2023-06-22T05:43:29;29.30;98.30
5870;DHT22;2961;47.702;9.410;2023-06-22T05:45:56;29.70;97.20
5870;DHT22;2961;47.702;9.410;2023-06-22T05:48:24;29.80;95.80
5870;DHT22;2961;47.702;9.410;2023-06-22T05:50:51;29.90;95.60
5870;DHT22;2961;47.702;9.410;2023-06-22T05:53:18;29.70;94.90
5870;DHT22;2961;47.702;9.410;2023-06-22T05:55:45;29.50;95.50
5870;DHT22;2961;47.702;9.410;2023-06-22T05:58:12;29.40;94.80
5870;DHT22;2961;47.702;9.410;2023-06-22T06:00:40;29.30;94.60
5870;DHT22;2961;47.702;9.410;2023-06-22T06:03:07;29.40;94.60
5870;DHT22;2961;47.702;9.410;2023-06-22T06:05:36;29.80;94.50
5870;DHT22;2961;47.702;9.410;2023-06-22T06:08:05;30.20;93.60
5870;DHT22;2961;47.702;9.410;2023-06-22T06:10:32;30.80;92.80
5870;DHT22;2961;47.702;9.410;2023-06-22T06:13:00;31.30;90.80
5870;DHT22;2961;47.702;9.410;2023-06-22T06:15:29;31.40;90.80
5870;DHT22;2961;47.702;9.410;2023-06-22T06:17:56;31.50;90.40
5870;DHT22;2961;47.702;9.410;2023-06-22T06:20:24;31.20;90.00
5870;DHT22;2961;47.702;9.410;2023-06-22T06:22:52;31.50;89.40
5870;DHT22;2961;47.702;9.410;2023-06-22T06:25:19;31.80;88.90
5870;DHT22;2961;47.702;9.410;2023-06-22T06:27:48;31.80;87.20
5870;DHT22;2961;47.702;9.410;2023-06-22T06:30:16;31.80;87.20
5870;DHT22;2961;47.702;9.410;2023-06-22T06:32:44;32.00;85.80
5870;DHT22;2961;47.702;9.410;2023-06-22T06:35:12;32.30;84.40
5870;DHT22;2961;47.702;9.410;2023-06-22T06:37:41;31.70;86.60
5870;DHT22;2961;47.702;9.410;2023-06-22T06:40:12;31.50;85.70
5870;DHT22;2961;47.702;9.410;2023-06-22T06:42:39;31.40;86.40
5870;DHT22;2961;47.702;9.410;2023-06-22T06:45:08;31.40;86.40
5870;DHT22;2961;47.702;9.410;2023-06-22T06:47:35;31.00;87.70
5870;DHT22;2961;47.702;9.410;2023-06-22T06:50:02;31.20;87.20
5870;DHT22;2961;47.702;9.410;2023-06-22T06:52:28;31.20;87.30
5870;DHT22;2961;47.702;9.410;2023-06-22T06:54:55;31.00;87.00
5870;DHT22;2961;47.702;9.410;2023-06-22T06:57:23;30.80;88.00
5870;DHT22;2961;47.702;9.410;2023-06-22T06:59:54;30.90;88.60
5870;DHT22;2961;47.702;9.410;2023-06-22T07:02:22;31.00;87.50
5870;DHT22;2961;47.702;9.410;2023-06-22T07:04:49;32.00;87.80
5870;DHT22;2961;47.702;9.410;2023-06-22T07:07:16;32.50;83.10
5870;DHT22;2961;47.702;9.410;2023-06-22T07:09:43;32.80;82.90
5870;DHT22;2961;47.702;9.410;2023-06-22T07:12:10;33.10;81.60
5870;DHT22;2961;47.702;9.410;2023-06-22T07:14:38;33.70;79.70
5870;DHT22;2961;47.702;9.410;2023-06-22T07:17:05;34.00;79.80
5870;DHT22;2961;47.702;9.410;2023-06-22T07:19:33;34.50;76.80
5870;DHT22;2961;47.702;9.410;2023-06-22T07:21:59;34.80;74.60
5870;DHT22;2961;47.702;9.410;2023-06-22T07:24:26;34.80;74.40
5870;DHT22;2961;47.702;9.410;2023-06-22T07:26:53;34.60;73.00
5870;DHT22;2961;47.702;9.410;2023-06-22T07:29:20;34.50;75.20
5870;DHT22;2961;47.702;9.410;2023-06-22T07:31:50;34.30;75.20
5870;DHT22;2961;47.702;9.410;2023-06-22T07:34:17;34.90;73.40
5870;DHT22;2961;47.702;9.410;2023-06-22T07:36:44;35.10;73.50
5870;DHT22;2961;47.702;9.410;2023-06-22T07:39:11;35.10;71.20
5870;DHT22;2961;47.702;9.410;2023-06-22T07:41:39;34.90;72.50
5870;DHT22;2961;47.702;9.410;2023-06-22T07:44:06;34.80;73.00
5870;DHT22;2961;47.702;9.410;2023-06-22T07:46:33;35.20;71.10
5870;DHT22;2961;47.702;9.410;2023-06-22T07:49:01;35.40;69.70
5870;DHT22;2961;47.702;9.410;2023-06-22T07:51:28;35.90;69.50
5870;DHT22;2961;47.702;9.410;2023-06-22T07:53:55;36.00;68.40
5870;DHT22;2961;47.702;9.410;2023-06-22T07:56:22;36.10;68.60
5870;DHT22;2961;47.702;9.410;2023-06-22T07:58:48;36.60;67.10
5870;DHT22;2961;47.702;9.410;2023-06-22T08:01:15;36.60;67.30
5870;DHT22;2961;47.702;9.410;2023-06-22T08:03:44;36.90;65.50
5870;DHT22;2961;47.702;9.410;2023-06-22T08:06:13;37.00;66.00
5870;DHT22;2961;47.702;9.410;2023-06-22T08:08:40;37.20;64.50
5870;DHT22;2961;47.702;9.410;2023-06-22T08:11:08;37.40;62.90
5870;DHT22;2961;47.702;9.410;2023-06-22T08:13:35;37.80;63.20
5870;DHT22;2961;47.702;9.410;2023-06-22T08:16:01;37.90;61.50
5870;DHT22;2961;47.702;9.410;2023-06-22T08:18:28;36.80;63.00
5870;DHT22;2961;47.702;9.410;2023-06-22T08:20:55;36.40;64.80
5870;DHT22;2961;47.702;9.410;2023-06-22T08:23:23;36.10;65.70
5870;DHT22;2961;47.702;9.410;2023-06-22T08:25:50;35.60;66.80
5870;DHT22;2961;47.702;9.410;2023-06-22T08:28:16;35.30;67.80
5870;DHT22;2961;47.702;9.410;2023-06-22T08:30:43;34.20;70.90
5870;DHT22;2961;47.702;9.410;2023-06-22T08:33:10;33.10;73.40
5870;DHT22;2961;47.702;9.410;2023-06-22T08:35:38;32.00;75.80
5870;DHT22;2961;47.702;9.410;2023-06-22T08:38:05;30.70;80.00
5870;DHT22;2961;47.702;9.410;2023-06-22T08:40:33;30.10;82.50
5870;DHT22;2961;47.702;9.410;2023-06-22T08:42:59;29.40;84.80
5870;DHT22;2961;47.702;9.410;2023-06-22T08:45:26;29.00;86.80
5870;DHT22;2961;47.702;9.410;2023-06-22T08:47:53;28.70;88.40
5870;DHT22;2961;47.702;9.410;2023-06-22T08:50:20;28.50;89.00
5870;DHT22;2961;47.702;9.410;2023-06-22T08:52:46;28.30;90.10
5870;DHT22;2961;47.702;9.410;2023-06-22T08:55:13;28.20;90.50
5870;DHT22;2961;47.702;9.410;2023-06-22T08:57:41;28.00;90.40
5870;DHT22;2961;47.702;9.410;2023-06-22T09:00:10;28.10;90.60
5870;DHT22;2961;47.702;9.410;2023-06-22T09:02:42;28.20;90.70
5870;DHT22;2961;47.702;9.410;2023-06-22T09:05:09;28.10;91.20
5870;DHT22;2961;47.702;9.410;2023-06-22T09:07:37;28.10;91.60
5870;DHT22;2961;47.702;9.410;2023-06-22T09:10:04;28.40;91.70
5870;DHT22;2961;47.702;9.410;2023-06-22T09:12:31;29.10;91.30
5870;DHT22;2961;47.702;9.410;2023-06-22T09:15:00;30.10;89.20
5870;DHT22;2961;47.702;9.410;2023-06-22T09:17:28;30.70;87.60
5870;DHT22;2961;47.702;9.410;2023-06-22T09:19:55;31.50;83.90
5870;DHT22;2961;47.702;9.410;2023-06-22T09:22:23;32.00;81.40
5870;DHT22;2961;47.702;9.410;2023-06-22T09:24:54;32.20;81.60
5870;DHT22;2961;47.702;9.410;2023-06-22T09:27:21;32.30;80.90
5870;DHT22;2961;47.702;9.410;2023-06-22T09:29:48;32.50;80.00
5870;DHT22;2961;47.702;9.410;2023-06-22T09:32:16;32.70;79.10
5870;DHT22;2961;47.702;9.410;2023-06-22T09:34:43;32.90;78.60
5870;DHT22;2961;47.702;9.410;2023-06-22T09:37:10;32.70;77.90
5870;DHT22;2961;47.702;9.410;2023-06-22T09:39:36;32.40;78.70
5870;DHT22;2961;47.702;9.410;2023-06-22T09:42:04;32.70;78.90
5870;DHT22;2961;47.702;9.410;2023-06-22T09:44:31;33.20;77.70
5870;DHT22;2961;47.702;9.410;2023-06-22T09:46:58;33.30;77.50
5870;DHT22;2961;47.702;9.410;2023-06-22T09:49:26;33.50;76.20
5870;DHT22;2961;47.702;9.410;2023-06-22T09:51:53;34.30;73.40
5870;DHT22;2961;47.702;9.410;2023-06-22T09:54:20;34.10;72.40
5870;DHT22;2961;47.702;9.410;2023-06-22T09:56:47;33.60;73.40
5870;DHT22;2961;47.702;9.410;2023-06-22T09:59:13;32.90;74.50
5870;DHT22;2961;47.702;9.410;2023-06-22T10:01:40;32.50;76.60
5870;DHT22;2961;47.702;9.410;2023-06-22T10:04:07;32.20;76.50
5870;DHT22;2961;47.702;9.410;2023-06-22T10:06:35;31.90;76.90
5870;DHT22;2961;47.702;9.410;2023-06-22T10:09:02;31.90;77.30
5870;DHT22;2961;47.702;9.410;2023-06-22T10:11:29;32.20;77.50
5870;DHT22;2961;47.702;9.410;2023-06-22T10:13:57;32.30;77.30
5870;DHT22;2961;47.702;9.410;2023-06-22T10:16:24;32.40;76.50
5870;DHT22;2961;47.702;9.410;2023-06-22T10:18:56;32.30;76.80
5870;DHT22;2961;47.702;9.410;2023-06-22T10:21:23;32.30;77.40
5870;DHT22;2961;47.702;9.410;2023-06-22T10:23:51;32.50;78.40
5870;DHT22;2961;47.702;9.410;2023-06-22T10:26:18;33.00;76.40
5870;DHT22;2961;47.702;9.410;2023-06-22T10:28:44;33.00;76.40
5870;DHT22;2961;47.702;9.410;2023-06-22T10:31:11;32.90;75.60
5870;DHT22;2961;47.702;9.410;2023-06-22T10:33:38;32.30;77.60
5870;DHT22;2961;47.702;9.410;2023-06-22T10:36:07;32.10;78.40
5870;DHT22;2961;47.702;9.410;2023-06-22T10:38:33;32.10;78.00
5870;DHT22;2961;47.702;9.410;2023-06-22T10:41:01;31.80;78.70
5870;DHT22;2961;47.702;9.410;2023-06-22T10:43:28;32.00;78.20
5870;DHT22;2961;47.702;9.410;2023-06-22T10:45:55;31.90;78.50
5870;DHT22;2961;47.702;9.410;2023-06-22T10:48:22;31.80;79.40
5870;DHT22;2961;47.702;9.410;2023-06-22T10:50:48;31.80;80.10
5870;DHT22;2961;47.702;9.410;2023-06-22T10:53:15;31.80;80.30
5870;DHT22;2961;47.702;9.410;2023-06-22T10:55:42;32.00;80.00
5870;DHT22;2961;47.702;9.410;2023-06-22T10:58:10;32.00;78.70
5870;DHT22;2961;47.702;9.410;2023-06-22T11:00:37;32.00;78.70
5870;DHT22;2961;47.702;9.410;2023-06-22T11:03:04;32.00;79.20
5870;DHT22;2961;47.702;9.410;2023-06-22T11:05:31;31.90;80.20
5870;DHT22;2961;47.702;9.410;2023-06-22T11:07:58;31.70;79.20
5870;DHT22;2961;47.702;9.410;2023-06-22T11:10:24;31.60;80.30
5870;DHT22;2961;47.702;9.410;2023-06-22T11:12:51;31.50;80.70
5870;DHT22;2961;47.702;9.410;2023-06-22T11:15:20;31.60;78.80
5870;DHT22;2961;47.702;9.410;2023-06-22T11:17:46;31.80;79.50
5870;DHT22;2961;47.702;9.410;2023-06-22T11:20:13;31.70;80.00
5870;DHT22;2961;47.702;9.410;2023-06-22T11:22:40;31.60;81.30
5870;DHT22;2961;47.702;9.410;2023-06-22T11:25:08;31.50;80.50
5870;DHT22;2961;47.702;9.410;2023-06-22T11:27:36;31.30;80.50
5870;DHT22;2961;47.702;9.410;2023-06-22T11:30:04;31.40;81.60
5870;DHT22;2961;47.702;9.410;2023-06-22T11:32:32;31.30;81.30
5870;DHT22;2961;47.702;9.410;2023-06-22T11:34:58;31.30;80.70
5870;DHT22;2961;47.702;9.410;2023-06-22T11:37:25;31.20;80.90
5870;DHT22;2961;47.702;9.410;2023-06-22T11:39:52;31.20;81.20
5870;DHT22;2961;47.702;9.410;2023-06-22T11:42:20;31.10;80.20
5870;DHT22;2961;47.702;9.410;2023-06-22T11:44:49;31.20;80.40
5870;DHT22;2961;47.702;9.410;2023-06-22T11:47:15;31.30;81.20
5870;DHT22;2961;47.702;9.410;2023-06-22T11:49:43;31.30;79.00
5870;DHT22;2961;47.702;9.410;2023-06-22T11:52:10;31.20;79.60
5870;DHT22;2961;47.702;9.410;2023-06-22T11:54:37;31.20;79.20
5870;DHT22;2961;47.702;9.410;2023-06-22T11:57:04;31.10;81.00
5870;DHT22;2961;47.702;9.410;2023-06-22T11:59:31;31.10;80.90
5870;DHT22;2961;47.702;9.410;2023-06-22T12:01:59;31.00;81.60
5870;DHT22;2961;47.702;9.410;2023-06-22T12:04:26;31.00;82.80
5870;DHT22;2961;47.702;9.410;2023-06-22T12:06:54;31.00;82.40
5870;DHT22;2961;47.702;9.410;2023-06-22T12:09:20;31.00;82.30
5870;DHT22;2961;47.702;9.410;2023-06-22T12:11:47;31.10;81.20
5870;DHT22;2961;47.702;9.410;2023-06-22T12:14:14;31.10;81.00
5870;DHT22;2961;47.702;9.410;2023-06-22T12:16:41;31.20;82.30
5870;DHT22;2961;47.702;9.410;2023-06-22T12:19:09;31.30;80.70
5870;DHT22;2961;47.702;9.410;2023-06-22T12:21:37;31.60;81.30
5870;DHT22;2961;47.702;9.410;2023-06-22T12:24:06;31.50;81.60
5870;DHT22;2961;47.702;9.410;2023-06-22T12:26:33;31.50;82.00
5870;DHT22;2961;47.702;9.410;2023-06-22T12:28:59;31.50;82.90
5870;DHT22;2961;47.702;9.410;2023-06-22T12:31:26;31.40;82.50
5870;DHT22;2961;47.702;9.410;2023-06-22T12:33:53;31.40;82.40
5870;DHT22;2961;47.702;9.410;2023-06-22T12:36:20;31.40;81.40
5870;DHT22;2961;47.702;9.410;2023-06-22T12:38:46;31.50;81.60
5870;DHT22;2961;47.702;9.410;2023-06-22T12:41:14;31.70;83.20
5870;DHT22;2961;47.702;9.410;2023-06-22T12:43:41;32.00;81.30
5870;DHT22;2961;47.702;9.410;2023-06-22T12:46:08;32.10;81.00
5870;DHT22;2961;47.702;9.410;2023-06-22T12:48:35;32.20;81.20
5870;DHT22;2961;47.702;9.410;2023-06-22T12:51:07;32.10;81.40
5870;DHT22;2961;47.702;9.410;2023-06-22T12:53:33;32.00;81.20
5870;DHT22;2961;47.702;9.410;2023-06-22T12:56:00;32.00;81.10
5870;DHT22;2961;47.702;9.410;2023-06-22T12:58:28;32.10;81.00
5870;DHT22;2961;47.702;9.410;2023-06-22T13:00:55;32.40;80.80
5870;DHT22;2961;47.702;9.410;2023-06-22T13:03:22;32.40;80.90
5870;DHT22;2961;47.702;9.410;2023-06-22T13:05:51;32.30;79.80
5870;DHT22;2961;47.702;9.410;2023-06-22T13:08:18;32.30;80.20
5870;DHT22;2961;47.702;9.410;2023-06-22T13:10:44;32.30;80.40
5870;DHT22;2961;47.702;9.410;2023-06-22T13:13:11;32.40;80.30
5870;DHT22;2961;47.702;9.410;2023-06-22T13:15:39;32.40;80.50
5870;DHT22;2961;47.702;9.410;2023-06-22T13:18:06;32.30;80.90
5870;DHT22;2961;47.702;9.410;2023-06-22T13:20:33;32.50;81.20
5870;DHT22;2961;47.702;9.410;2023-06-22T13:23:00;32.70;80.30
5870;DHT22;2961;47.702;9.410;2023-06-22T13:25:27;32.70;81.20
5870;DHT22;2961;47.702;9.410;2023-06-22T13:27:53;32.80;80.30
5870;DHT22;2961;47.702;9.410;2023-06-22T13:30:20;32.80;80.90
5870;DHT22;2961;47.702;9.410;2023-06-22T13:32:48;32.80;79.70
5870;DHT22;2961;47.702;9.410;2023-06-22T13:35:15;32.80;80.40
5870;DHT22;2961;47.702;9.410;2023-06-22T13:37:42;32.70;80.20
5870;DHT22;2961;47.702;9.410;2023-06-22T13:40:09;32.60;80.40
5870;DHT22;2961;47.702;9.410;2023-06-22T13:42:36;32.50;81.30
5870;DHT22;2961;47.702;9.410;2023-06-22T13:45:03;32.30;81.50
5870;DHT22;2961;47.702;9.410;2023-06-22T13:47:30;32.30;81.60
5870;DHT22;2961;47.702;9.410;2023-06-22T13:49:58;32.30;81.40
5870;DHT22;2961;47.702;9.410;2023-06-22T13:52:26;32.40;81.60
5870;DHT22;2961;47.702;9.410;2023-06-22T13:54:52;32.50;81.30
5870;DHT22;2961;47.702;9.410;2023-06-22T13:57:19;32.40;81.80
5870;DHT22;2961;47.702;9.410;2023-06-22T13:59:46;32.50;84.60
5870;DHT22;2961;47.702;9.410;2023-06-22T14:02:13;32.40;86.70
5870;DHT22;2961;47.702;9.410;2023-06-22T14:04:40;32.40;84.20
5870;DHT22;2961;47.702;9.410;2023-06-22T14:07:08;32.40;84.20
5870;DHT22;2961;47.702;9.410;2023-06-22T14:09:35;32.50;82.50
5870;DHT22;2961;47.702;9.410;2023-06-22T14:12:03;31.90;82.80
5870;DHT22;2961;47.702;9.410;2023-06-22T14:14:31;31.40;85.50
5870;DHT22;2961;47.702;9.410;2023-06-22T14:16:58;31.10;86.60
5870;DHT22;2961;47.702;9.410;2023-06-22T14:19:25;31.00;87.10
5870;DHT22;2961;47.702;9.410;2023-06-22T14:21:51;31.00;86.60
5870;DHT22;2961;47.702;9.410;2023-06-22T14:24:20;30.90;88.40
5870;DHT22;2961;47.702;9.410;2023-06-22T14:26:46;31.00;88.40
5870;DHT22;2961;47.702;9.410;2023-06-22T14:29:13;31.10;89.90
5870;DHT22;2961;47.702;9.410;2023-06-22T14:31:40;31.20;88.70
5870;DHT22;2961;47.702;9.410;2023-06-22T14:34:07;31.10;88.80
5870;DHT22;2961;47.702;9.410;2023-06-22T14:36:34;30.90;89.50
5870;DHT22;2961;47.702;9.410;2023-06-22T14:39:00;31.00;90.20
5870;DHT22;2961;47.702;9.410;2023-06-22T14:41:29;31.20;90.00
5870;DHT22;2961;47.702;9.410;2023-06-22T14:43:56;31.30;88.20
5870;DHT22;2961;47.702;9.410;2023-06-22T14:46:23;31.30;82.90
5870;DHT22;2961;47.702;9.410;2023-06-22T14:48:50;31.40;82.70
5870;DHT22;2961;47.702;9.410;2023-06-22T14:51:16;31.60;82.10
5870;DHT22;2961;47.702;9.410;2023-06-22T14:53:44;31.60;80.70
5870;DHT22;2961;47.702;9.410;2023-06-22T14:56:11;31.60;81.80
5870;DHT22;2961;47.702;9.410;2023-06-22T14:58:41;31.70;79.90
5870;DHT22;2961;47.702;9.410;2023-06-22T15:01:11;31.80;79.10
5870;DHT22;2961;47.702;9.410;2023-06-22T15:03:38;32.00;77.20
5870;DHT22;2961;47.702;9.410;2023-06-22T15:06:05;32.10;76.10
5870;DHT22;2961;47.702;9.410;2023-06-22T15:08:32;32.10;76.80
5870;DHT22;2961;47.702;9.410;2023-06-22T15:10:59;32.20;78.40
5870;DHT22;2961;47.702;9.410;2023-06-22T15:13:27;32.10;75.20
5870;DHT22;2961;47.702;9.410;2023-06-22T15:15:56;32.10;73.60
5870;DHT22;2961;47.702;9.410;2023-06-22T15:18:23;32.00;70.10
5870;DHT22;2961;47.702;9.410;2023-06-22T15:20:49;31.90;68.30
5870;DHT22;2961;47.702;9.410;2023-06-22T15:23:17;32.00;69.60
5870;DHT22;2961;47.702;9.410;2023-06-22T15:25:44;32.00;68.00
5870;DHT22;2961;47.702;9.410;2023-06-22T15:28:11;32.10;67.10
5870;DHT22;2961;47.702;9.410;2023-06-22T15:30:38;32.20;66.60
5870;DHT22;2961;47.702;9.410;2023-06-22T15:33:06;32.30;66.60
5870;DHT22;2961;47.702;9.410;2023-06-22T15:35:33;32.40;65.60
5870;DHT22;2961;47.702;9.410;2023-06-22T15:38:00;32.50;66.40
5870;DHT22;2961;47.702;9.410;2023-06-22T15:40:27;32.40;64.40
5870;DHT22;2961;47.702;9.410;2023-06-22T15:42:54;32.30;65.80
5870;DHT22;2961;47.702;9.410;2023-06-22T15:45:21;32.00;64.20
5870;DHT22;2961;47.702;9.410;2023-06-22T15:47:47;31.90;65.20
5870;DHT22;2961;47.702;9.410;2023-06-22T15:50:16;31.80;65.80
5870;DHT22;2961;47.702;9.410;2023-06-22T15:52:42;31.90;67.70
5870;DHT22;2961;47.702;9.410;2023-06-22T15:55:13;31.80;66.50
5870;DHT22;2961;47.702;9.410;2023-06-22T15:57:40;31.80;67.00
5870;DHT22;2961;47.702;9.410;2023-06-22T16:00:13;31.70;67.00
5870;DHT22;2961;47.702;9.410;2023-06-22T16:02:40;31.60;66.70